sensor_id;sensor_type;location;lat;lon;timestamp;P1;durP1;ratioP1;P2;durP2;ratioP2
16880;SDS011;8557;52.068;5.198;2023-02-28T00:01:06;4.65;;;2.97;;
16880;SDS011;8557;52.068;5.198;2023-02-28T00:03:33;4.13;;;3.30;;
16880;SDS011;8557;52.068;5.198;2023-02-28T00:06:00;5.35;;;3.47;;
16880;SDS011;8557;52.068;5.198;2023-02-28T00:08:27;3.47;;;2.72;;
16880;SDS011;8557;52.068;5.198;2023-02-28T00:10:54;5.40;;;3.28;;
16880;SDS011;8557;52.068;5.198;2023-02-28T00:13:22;4.55;;;3.05;;
16880;SDS011;8557;52.068;5.198;2023-02-28T00:15:58;5.65;;;3.40;;
16880;SDS011;8557;52.068;5.198;2023-02-28T00:18:25;4.82;;;3.10;;
16880;SDS011;8557;52.068;5.198;2023-02-28T00:20:52;4.85;;;2.90;;
16880;SDS011;8557;52.068;5.198;2023-02-28T00:23:19;7.25;;;3.25;;
16880;SDS011;8557;52.068;5.198;2023-02-28T00:25:46;7.28;;;3.30;;
16880;SDS011;8557;52.068;5.198;2023-02-28T00:28:12;4.93;;;3.13;;
16880;SDS011;8557;52.068;5.198;2023-02-28T00:30:41;7.53;;;3.78;;
16880;SDS011;8557;52.068;5.198;2023-02-28T00:33:07;5.50;;;3.00;;
16880;SDS011;8557;52.068;5.198;2023-02-28T00:35:34;4.05;;;3.00;;
16880;SDS011;8557;52.068;5.198;2023-02-28T00:38:02;4.90;;;2.88;;
16880;SDS011;8557;52.068;5.198;2023-02-28T00:40:29;5.60;;;3.55;;
16880;SDS011;8557;52.068;5.198;2023-02-28T00:42:56;5.68;;;3.20;;
16880;SDS011;8557;52.068;5.198;2023-02-28T00:45:23;6.35;;;3.00;;
16880;SDS011;8557;52.068;5.198;2023-02-28T00:47:51;5.68;;;3.00;;
16880;SDS011;8557;52.068;5.198;2023-02-28T00:50:18;4.47;;;3.10;;
16880;SDS011;8557;52.068;5.198;2023-02-28T00:52:46;7.25;;;3.45;;
16880;SDS011;8557;52.068;5.198;2023-02-28T00:55:13;4.57;;;3.15;;
16880;SDS011;8557;52.068;5.198;2023-02-28T00:57:39;5.55;;;3.42;;
16880;SDS011;8557;52.068;5.198;2023-02-28T01:00:07;5.22;;;3.35;;
16880;SDS011;8557;52.068;5.198;2023-02-28T01:02:36;5.75;;;3.20;;
16880;SDS011;8557;52.068;5.198;2023-02-28T01:05:04;7.10;;;3.38;;
16880;SDS011;8557;52.068;5.198;2023-02-28T01:07:32;4.85;;;3.00;;
16880;SDS011;8557;52.068;5.198;2023-02-28T01:09:58;6.78;;;3.70;;
16880;SDS011;8557;52.068;5.198;2023-02-28T01:12:25;6.10;;;3.42;;
16880;SDS011;8557;52.068;5.198;2023-02-28T01:14:52;5.28;;;3.03;;
16880;SDS011;8557;52.068;5.198;2023-02-28T01:17:19;4.13;;;3.05;;
16880;SDS011;8557;52.068;5.198;2023-02-28T01:19:46;4.43;;;3.30;;
16880;SDS011;8557;52.068;5.198;2023-02-28T01:22:14;6.32;;;3.53;;
16880;SDS011;8557;52.068;5.198;2023-02-28T01:24:41;4.32;;;3.40;;
16880;SDS011;8557;52.068;5.198;2023-02-28T01:27:07;6.25;;;2.85;;
16880;SDS011;8557;52.068;5.198;2023-02-28T01:29:34;5.65;;;3.40;;
16880;SDS011;8557;52.068;5.198;2023-02-28T01:32:01;5.03;;;3.10;;
16880;SDS011;8557;52.068;5.198;2023-02-28T01:34:28;4.55;;;3.30;;
16880;SDS011;8557;52.068;5.198;2023-02-28T01:36:54;6.35;;;3.50;;
16880;SDS011;8557;52.068;5.198;2023-02-28T01:39:25;7.15;;;3.67;;
16880;SDS011;8557;52.068;5.198;2023-02-28T01:41:51;5.20;;;3.13;;
16880;SDS011;8557;52.068;5.198;2023-02-28T01:47:38;5.45;;;2.88;;
16880;SDS011;8557;52.068;5.198;2023-02-28T01:50:07;8.93;;;3.40;;
16880;SDS011;8557;52.068;5.198;2023-02-28T01:52:39;5.90;;;3.33;;
16880;SDS011;8557;52.068;5.198;2023-02-28T01:55:09;5.43;;;3.42;;
16880;SDS011;8557;52.068;5.198;2023-02-28T01:57:38;4.57;;;3.00;;
16880;SDS011;8557;52.068;5.198;2023-02-28T02:00:08;4.53;;;3.53;;
16880;SDS011;8557;52.068;5.198;2023-02-28T02:02:39;5.63;;;3.40;;
16880;SDS011;8557;52.068;5.198;2023-02-28T02:05:09;5.65;;;3.63;;
16880;SDS011;8557;52.068;5.198;2023-02-28T02:07:38;5.05;;;3.42;;
16880;SDS011;8557;52.068;5.198;2023-02-28T02:13:08;6.05;;;3.42;;
16880;SDS011;8557;52.068;5.198;2023-02-28T02:15:48;6.47;;;3.10;;
16880;SDS011;8557;52.068;5.198;2023-02-28T02:18:23;3.60;;;2.95;;
16880;SDS011;8557;52.068;5.198;2023-02-28T02:21:02;5.55;;;3.30;;
16880;SDS011;8557;52.068;5.198;2023-02-28T02:27:06;5.05;;;3.20;;
16880;SDS011;8557;52.068;5.198;2023-02-28T02:30:04;4.80;;;3.40;;
16880;SDS011;8557;52.068;5.198;2023-02-28T02:35:59;4.25;;;3.35;;
16880;SDS011;8557;52.068;5.198;2023-02-28T02:38:31;4.70;;;3.25;;
16880;SDS011;8557;52.068;5.198;2023-02-28T02:41:04;4.22;;;2.90;;
16880;SDS011;8557;52.068;5.198;2023-02-28T02:43:40;5.68;;;3.17;;
16880;SDS011;8557;52.068;5.198;2023-02-28T02:46:13;5.30;;;3.17;;
16880;SDS011;8557;52.068;5.198;2023-02-28T02:48:43;5.75;;;3.40;;
16880;SDS011;8557;52.068;5.198;2023-02-28T02:51:13;5.10;;;3.22;;
16880;SDS011;8557;52.068;5.198;2023-02-28T02:53:44;5.72;;;3.20;;
16880;SDS011;8557;52.068;5.198;2023-02-28T02:56:15;5.60;;;3.10;;
16880;SDS011;8557;52.068;5.198;2023-02-28T02:58:44;6.72;;;3.60;;
16880;SDS011;8557;52.068;5.198;2023-02-28T03:01:16;7.35;;;4.38;;
16880;SDS011;8557;52.068;5.198;2023-02-28T03:03:53;5.07;;;3.20;;
16880;SDS011;8557;52.068;5.198;2023-02-28T03:06:23;4.90;;;3.28;;
16880;SDS011;8557;52.068;5.198;2023-02-28T03:08:50;5.95;;;3.42;;
16880;SDS011;8557;52.068;5.198;2023-02-28T03:11:16;4.38;;;3.05;;
16880;SDS011;8557;52.068;5.198;2023-02-28T03:13:57;5.72;;;3.28;;
16880;SDS011;8557;52.068;5.198;2023-02-28T03:16:35;4.90;;;3.40;;
16880;SDS011;8557;52.068;5.198;2023-02-28T03:19:13;6.18;;;3.08;;
16880;SDS011;8557;52.068;5.198;2023-02-28T03:21:57;7.22;;;3.10;;
16880;SDS011;8557;52.068;5.198;2023-02-28T03:24:38;6.38;;;3.20;;
16880;SDS011;8557;52.068;5.198;2023-02-28T03:27:09;5.57;;;3.53;;
16880;SDS011;8557;52.068;5.198;2023-02-28T03:29:43;4.57;;;3.22;;
16880;SDS011;8557;52.068;5.198;2023-02-28T03:32:15;5.88;;;3.08;;
16880;SDS011;8557;52.068;5.198;2023-02-28T03:34:49;5.40;;;3.13;;
16880;SDS011;8557;52.068;5.198;2023-02-28T03:37:24;5.05;;;2.85;;
16880;SDS011;8557;52.068;5.198;2023-02-28T03:39:55;5.70;;;3.00;;
16880;SDS011;8557;52.068;5.198;2023-02-28T03:42:25;4.88;;;3.30;;
16880;SDS011;8557;52.068;5.198;2023-02-28T03:44:55;6.35;;;3.05;;
16880;SDS011;8557;52.068;5.198;2023-02-28T03:47:26;4.28;;;3.22;;
16880;SDS011;8557;52.068;5.198;2023-02-28T03:49:56;6.43;;;3.75;;
16880;SDS011;8557;52.068;5.198;2023-02-28T03:52:29;3.55;;;3.10;;
16880;SDS011;8557;52.068;5.198;2023-02-28T03:55:00;4.85;;;3.10;;
16880;SDS011;8557;52.068;5.198;2023-02-28T03:57:32;5.70;;;2.80;;
16880;SDS011;8557;52.068;5.198;2023-02-28T04:00:05;4.93;;;3.28;;
16880;SDS011;8557;52.068;5.198;2023-02-28T04:02:34;3.92;;;3.05;;
16880;SDS011;8557;52.068;5.198;2023-02-28T04:05:01;6.45;;;3.33;;
16880;SDS011;8557;52.068;5.198;2023-02-28T04:07:31;4.95;;;3.03;;
16880;SDS011;8557;52.068;5.198;2023-02-28T04:09:58;4.22;;;3.47;;
16880;SDS011;8557;52.068;5.198;2023-02-28T04:12:25;4.80;;;3.58;;
16880;SDS011;8557;52.068;5.198;2023-02-28T04:14:52;5.28;;;3.05;;
16880;SDS011;8557;52.068;5.198;2023-02-28T04:17:19;7.85;;;3.80;;
16880;SDS011;8557;52.068;5.198;2023-02-28T04:19:46;7.00;;;3.85;;
16880;SDS011;8557;52.068;5.198;2023-02-28T04:22:13;7.30;;;4.05;;
16880;SDS011;8557;52.068;5.198;2023-02-28T04:24:41;7.68;;;3.60;;
16880;SDS011;8557;52.068;5.198;2023-02-28T04:27:08;5.47;;;4.50;;
16880;SDS011;8557;52.068;5.198;2023-02-28T04:29:35;7.30;;;3.85;;
16880;SDS011;8557;52.068;5.198;2023-02-28T04:32:03;7.10;;;4.00;;
16880;SDS011;8557;52.068;5.198;2023-02-28T04:34:31;5.30;;;3.78;;
16880;SDS011;8557;52.068;5.198;2023-02-28T04:36:58;5.55;;;3.80;;
16880;SDS011;8557;52.068;5.198;2023-02-28T04:39:25;4.70;;;3.58;;
16880;SDS011;8557;52.068;5.198;2023-02-28T04:41:53;6.70;;;4.30;;
16880;SDS011;8557;52.068;5.198;2023-02-28T04:44:20;5.97;;;3.38;;
16880;SDS011;8557;52.068;5.198;2023-02-28T04:46:48;4.88;;;3.20;;
16880;SDS011;8557;52.068;5.198;2023-02-28T04:49:15;3.40;;;2.90;;
16880;SDS011;8557;52.068;5.198;2023-02-28T04:51:42;3.22;;;2.80;;
16880;SDS011;8557;52.068;5.198;2023-02-28T04:54:09;4.53;;;3.28;;
16880;SDS011;8557;52.068;5.198;2023-02-28T04:56:36;3.38;;;2.92;;
16880;SDS011;8557;52.068;5.198;2023-02-28T04:59:04;3.22;;;2.78;;
16880;SDS011;8557;52.068;5.198;2023-02-28T05:01:32;3.38;;;3.00;;
16880;SDS011;8557;52.068;5.198;2023-02-28T05:04:01;3.50;;;2.92;;
16880;SDS011;8557;52.068;5.198;2023-02-28T05:06:30;3.70;;;2.92;;
16880;SDS011;8557;52.068;5.198;2023-02-28T05:08:58;3.00;;;2.70;;
16880;SDS011;8557;52.068;5.198;2023-02-28T05:11:26;3.03;;;2.70;;
16880;SDS011;8557;52.068;5.198;2023-02-28T05:13:58;5.10;;;2.72;;
16880;SDS011;8557;52.068;5.198;2023-02-28T05:16:27;3.17;;;2.88;;
16880;SDS011;8557;52.068;5.198;2023-02-28T05:18:53;3.28;;;2.80;;
16880;SDS011;8557;52.068;5.198;2023-02-28T05:21:22;4.20;;;2.78;;
16880;SDS011;8557;52.068;5.198;2023-02-28T05:23:51;3.33;;;2.60;;
16880;SDS011;8557;52.068;5.198;2023-02-28T05:26:18;3.42;;;2.60;;
16880;SDS011;8557;52.068;5.198;2023-02-28T05:28:45;3.45;;;2.97;;
16880;SDS011;8557;52.068;5.198;2023-02-28T05:31:12;4.97;;;2.90;;
16880;SDS011;8557;52.068;5.198;2023-02-28T05:33:41;4.03;;;2.75;;
16880;SDS011;8557;52.068;5.198;2023-02-28T05:36:08;5.00;;;2.78;;
16880;SDS011;8557;52.068;5.198;2023-02-28T05:38:35;4.13;;;3.03;;
16880;SDS011;8557;52.068;5.198;2023-02-28T05:41:04;4.57;;;2.78;;
16880;SDS011;8557;52.068;5.198;2023-02-28T05:43:32;5.65;;;3.00;;
16880;SDS011;8557;52.068;5.198;2023-02-28T05:46:01;4.07;;;3.15;;
16880;SDS011;8557;52.068;5.198;2023-02-28T05:48:29;3.45;;;3.13;;
16880;SDS011;8557;52.068;5.198;2023-02-28T05:50:58;4.57;;;3.10;;
16880;SDS011;8557;52.068;5.198;2023-02-28T05:53:25;4.80;;;3.20;;
16880;SDS011;8557;52.068;5.198;2023-02-28T05:55:52;4.22;;;3.17;;
16880;SDS011;8557;52.068;5.198;2023-02-28T05:58:19;3.90;;;3.60;;
16880;SDS011;8557;52.068;5.198;2023-02-28T06:00:46;4.68;;;3.20;;
16880;SDS011;8557;52.068;5.198;2023-02-28T06:03:13;5.70;;;3.30;;
16880;SDS011;8557;52.068;5.198;2023-02-28T06:05:40;5.20;;;3.50;;
16880;SDS011;8557;52.068;5.198;2023-02-28T06:08:08;4.60;;;3.40;;
16880;SDS011;8557;52.068;5.198;2023-02-28T06:10:34;4.85;;;3.90;;
16880;SDS011;8557;52.068;5.198;2023-02-28T06:13:01;5.30;;;3.70;;
16880;SDS011;8557;52.068;5.198;2023-02-28T06:15:29;3.70;;;3.35;;
16880;SDS011;8557;52.068;5.198;2023-02-28T06:17:56;4.97;;;3.67;;
16880;SDS011;8557;52.068;5.198;2023-02-28T06:20:24;6.10;;;3.40;;
16880;SDS011;8557;52.068;5.198;2023-02-28T06:22:54;5.07;;;3.70;;
16880;SDS011;8557;52.068;5.198;2023-02-28T06:25:22;5.50;;;4.00;;
16880;SDS011;8557;52.068;5.198;2023-02-28T06:27:49;4.97;;;3.78;;
16880;SDS011;8557;52.068;5.198;2023-02-28T06:30:16;5.60;;;3.88;;
16880;SDS011;8557;52.068;5.198;2023-02-28T06:32:43;4.13;;;3.58;;
16880;SDS011;8557;52.068;5.198;2023-02-28T06:35:09;4.78;;;3.63;;
16880;SDS011;8557;52.068;5.198;2023-02-28T06:37:36;4.13;;;3.67;;
16880;SDS011;8557;52.068;5.198;2023-02-28T06:40:03;7.55;;;4.25;;
16880;SDS011;8557;52.068;5.198;2023-02-28T06:42:34;6.00;;;3.80;;
16880;SDS011;8557;52.068;5.198;2023-02-28T06:45:01;6.40;;;3.88;;
16880;SDS011;8557;52.068;5.198;2023-02-28T06:47:34;5.03;;;3.92;;
16880;SDS011;8557;52.068;5.198;2023-02-28T06:50:01;4.25;;;3.72;;
16880;SDS011;8557;52.068;5.198;2023-02-28T06:52:28;5.43;;;4.10;;
16880;SDS011;8557;52.068;5.198;2023-02-28T06:54:55;5.40;;;4.28;;
16880;SDS011;8557;52.068;5.198;2023-02-28T06:57:27;5.43;;;4.07;;
16880;SDS011;8557;52.068;5.198;2023-02-28T06:59:57;5.60;;;3.95;;
16880;SDS011;8557;52.068;5.198;2023-02-28T07:02:24;7.15;;;4.47;;
16880;SDS011;8557;52.068;5.198;2023-02-28T07:04:51;9.82;;;4.65;;
16880;SDS011;8557;52.068;5.198;2023-02-28T07:07:18;4.60;;;4.07;;
16880;SDS011;8557;52.068;5.198;2023-02-28T07:09:45;5.43;;;4.25;;
16880;SDS011;8557;52.068;5.198;2023-02-28T07:12:11;5.55;;;4.47;;
16880;SDS011;8557;52.068;5.198;2023-02-28T07:14:38;7.38;;;4.60;;
16880;SDS011;8557;52.068;5.198;2023-02-28T07:17:07;4.35;;;3.92;;
16880;SDS011;8557;52.068;5.198;2023-02-28T07:19:36;4.95;;;4.18;;
16880;SDS011;8557;52.068;5.198;2023-02-28T07:22:04;5.88;;;4.03;;
16880;SDS011;8557;52.068;5.198;2023-02-28T07:24:31;5.20;;;4.13;;
16880;SDS011;8557;52.068;5.198;2023-02-28T07:26:58;6.10;;;4.13;;
16880;SDS011;8557;52.068;5.198;2023-02-28T07:29:25;4.70;;;4.13;;
16880;SDS011;8557;52.068;5.198;2023-02-28T07:31:52;5.30;;;4.15;;
16880;SDS011;8557;52.068;5.198;2023-02-28T07:34:20;6.60;;;3.90;;
16880;SDS011;8557;52.068;5.198;2023-02-28T07:36:48;4.40;;;4.03;;
16880;SDS011;8557;52.068;5.198;2023-02-28T07:39:18;6.38;;;4.28;;
16880;SDS011;8557;52.068;5.198;2023-02-28T07:41:45;9.48;;;4.63;;
16880;SDS011;8557;52.068;5.198;2023-02-28T07:44:12;5.47;;;4.18;;
16880;SDS011;8557;52.068;5.198;2023-02-28T07:46:39;5.07;;;4.30;;
16880;SDS011;8557;52.068;5.198;2023-02-28T07:49:06;4.50;;;4.10;;
16880;SDS011;8557;52.068;5.198;2023-02-28T07:51:35;5.47;;;4.10;;
16880;SDS011;8557;52.068;5.198;2023-02-28T07:54:02;5.63;;;4.30;;
16880;SDS011;8557;52.068;5.198;2023-02-28T07:56:30;5.38;;;3.78;;
16880;SDS011;8557;52.068;5.198;2023-02-28T07:58:57;5.55;;;4.13;;
16880;SDS011;8557;52.068;5.198;2023-02-28T08:01:24;5.95;;;4.30;;
16880;SDS011;8557;52.068;5.198;2023-02-28T08:03:50;6.22;;;4.45;;
16880;SDS011;8557;52.068;5.198;2023-02-28T08:06:19;8.63;;;4.68;;
16880;SDS011;8557;52.068;5.198;2023-02-28T08:08:48;6.82;;;4.55;;
16880;SDS011;8557;52.068;5.198;2023-02-28T08:11:16;5.80;;;4.93;;
16880;SDS011;8557;52.068;5.198;2023-02-28T08:13:44;5.43;;;4.93;;
16880;SDS011;8557;52.068;5.198;2023-02-28T08:16:11;7.60;;;4.63;;
16880;SDS011;8557;52.068;5.198;2023-02-28T08:18:42;8.50;;;4.50;;
16880;SDS011;8557;52.068;5.198;2023-02-28T08:21:09;7.25;;;4.25;;
16880;SDS011;8557;52.068;5.198;2023-02-28T08:23:36;4.75;;;4.30;;
16880;SDS011;8557;52.068;5.198;2023-02-28T08:26:05;4.80;;;4.28;;
16880;SDS011;8557;52.068;5.198;2023-02-28T08:28:32;4.07;;;3.67;;
16880;SDS011;8557;52.068;5.198;2023-02-28T08:30:59;3.90;;;3.53;;
16880;SDS011;8557;52.068;5.198;2023-02-28T08:33:26;5.03;;;3.72;;
16880;SDS011;8557;52.068;5.198;2023-02-28T08:35:53;5.03;;;3.10;;
16880;SDS011;8557;52.068;5.198;2023-02-28T08:38:20;6.47;;;3.40;;
16880;SDS011;8557;52.068;5.198;2023-02-28T08:40:47;5.85;;;3.10;;
16880;SDS011;8557;52.068;5.198;2023-02-28T08:43:16;3.50;;;3.20;;
16880;SDS011;8557;52.068;5.198;2023-02-28T08:45:42;4.43;;;3.22;;
16880;SDS011;8557;52.068;5.198;2023-02-28T08:48:09;3.40;;;3.10;;
16880;SDS011;8557;52.068;5.198;2023-02-28T08:50:36;4.35;;;3.33;;
16880;SDS011;8557;52.068;5.198;2023-02-28T08:53:03;4.80;;;3.78;;
16880;SDS011;8557;52.068;5.198;2023-02-28T08:55:30;5.30;;;3.53;;
16880;SDS011;8557;52.068;5.198;2023-02-28T08:57:57;5.13;;;3.50;;
16880;SDS011;8557;52.068;5.198;2023-02-28T09:00:25;6.00;;;3.42;;
16880;SDS011;8557;52.068;5.198;2023-02-28T09:02:52;3.35;;;3.05;;
16880;SDS011;8557;52.068;5.198;2023-02-28T09:05:19;3.15;;;2.85;;
16880;SDS011;8557;52.068;5.198;2023-02-28T09:07:46;3.83;;;2.90;;
16880;SDS011;8557;52.068;5.198;2023-02-28T09:10:14;3.47;;;3.08;;
16880;SDS011;8557;52.068;5.198;2023-02-28T09:12:41;4.40;;;3.00;;
16880;SDS011;8557;52.068;5.198;2023-02-28T09:15:08;3.17;;;2.78;;
16880;SDS011;8557;52.068;5.198;2023-02-28T09:17:37;3.70;;;3.15;;
16880;SDS011;8557;52.068;5.198;2023-02-28T09:20:04;3.80;;;2.88;;
16880;SDS011;8557;52.068;5.198;2023-02-28T09:22:32;3.30;;;3.00;;
16880;SDS011;8557;52.068;5.198;2023-02-28T09:24:59;2.60;;;2.40;;
16880;SDS011;8557;52.068;5.198;2023-02-28T09:27:26;3.35;;;2.70;;
16880;SDS011;8557;52.068;5.198;2023-02-28T09:29:52;4.38;;;2.40;;
16880;SDS011;8557;52.068;5.198;2023-02-28T09:32:19;2.55;;;2.03;;
16880;SDS011;8557;52.068;5.198;2023-02-28T09:34:47;4.10;;;2.20;;
16880;SDS011;8557;52.068;5.198;2023-02-28T09:37:15;3.03;;;2.10;;
16880;SDS011;8557;52.068;5.198;2023-02-28T09:39:42;3.08;;;2.58;;
16880;SDS011;8557;52.068;5.198;2023-02-28T09:42:11;2.72;;;2.20;;
16880;SDS011;8557;52.068;5.198;2023-02-28T09:44:47;3.20;;;2.33;;
16880;SDS011;8557;52.068;5.198;2023-02-28T09:47:17;2.70;;;2.25;;
16880;SDS011;8557;52.068;5.198;2023-02-28T09:49:53;4.50;;;2.50;;
16880;SDS011;8557;52.068;5.198;2023-02-28T09:52:26;2.03;;;1.75;;
16880;SDS011;8557;52.068;5.198;2023-02-28T09:55:18;1.83;;;1.40;;
16880;SDS011;8557;52.068;5.198;2023-02-28T09:57:48;2.08;;;1.60;;
16880;SDS011;8557;52.068;5.198;2023-02-28T10:00:18;1.60;;;1.50;;
16880;SDS011;8557;52.068;5.198;2023-02-28T10:02:48;1.80;;;1.52;;
16880;SDS011;8557;52.068;5.198;2023-02-28T10:05:32;5.90;;;1.67;;
16880;SDS011;8557;52.068;5.198;2023-02-28T10:08:04;1.77;;;1.55;;
16880;SDS011;8557;52.068;5.198;2023-02-28T10:10:37;1.85;;;1.73;;
16880;SDS011;8557;52.068;5.198;2023-02-28T10:13:12;4.80;;;1.83;;
16880;SDS011;8557;52.068;5.198;2023-02-28T10:15:43;1.67;;;1.58;;
16880;SDS011;8557;52.068;5.198;2023-02-28T10:18:13;2.85;;;1.73;;
16880;SDS011;8557;52.068;5.198;2023-02-28T10:20:50;1.70;;;1.50;;
16880;SDS011;8557;52.068;5.198;2023-02-28T10:23:21;4.07;;;2.20;;
16880;SDS011;8557;52.068;5.198;2023-02-28T10:25:53;1.92;;;1.70;;
16880;SDS011;8557;52.068;5.198;2023-02-28T10:28:24;2.58;;;1.55;;
16880;SDS011;8557;52.068;5.198;2023-02-28T10:30:52;2.33;;;1.70;;
16880;SDS011;8557;52.068;5.198;2023-02-28T10:33:21;2.22;;;1.48;;
16880;SDS011;8557;52.068;5.198;2023-02-28T10:35:51;1.92;;;1.58;;
16880;SDS011;8557;52.068;5.198;2023-02-28T10:38:19;1.83;;;1.55;;
16880;SDS011;8557;52.068;5.198;2023-02-28T10:40:48;2.40;;;1.60;;
16880;SDS011;8557;52.068;5.198;2023-02-28T10:43:19;3.60;;;1.83;;
16880;SDS011;8557;52.068;5.198;2023-02-28T10:48:40;3.42;;;2.00;;
16880;SDS011;8557;52.068;5.198;2023-02-28T10:51:12;2.45;;;1.85;;
16880;SDS011;8557;52.068;5.198;2023-02-28T10:53:45;4.18;;;1.80;;
16880;SDS011;8557;52.068;5.198;2023-02-28T10:56:16;2.80;;;1.70;;
16880;SDS011;8557;52.068;5.198;2023-02-28T10:58:53;1.75;;;1.65;;
16880;SDS011;8557;52.068;5.198;2023-02-28T11:01:22;2.75;;;1.60;;
16880;SDS011;8557;52.068;5.198;2023-02-28T11:03:51;2.03;;;1.50;;
16880;SDS011;8557;52.068;5.198;2023-02-28T11:06:20;1.65;;;1.55;;
16880;SDS011;8557;52.068;5.198;2023-02-28T11:08:50;2.10;;;1.77;;
16880;SDS011;8557;52.068;5.198;2023-02-28T11:11:19;3.35;;;1.75;;
16880;SDS011;8557;52.068;5.198;2023-02-28T11:13:48;1.92;;;1.60;;
16880;SDS011;8557;52.068;5.198;2023-02-28T11:16:18;2.83;;;1.77;;
16880;SDS011;8557;52.068;5.198;2023-02-28T11:18:47;1.88;;;1.60;;
16880;SDS011;8557;52.068;5.198;2023-02-28T11:21:16;2.25;;;1.58;;
16880;SDS011;8557;52.068;5.198;2023-02-28T11:23:48;2.55;;;1.67;;
16880;SDS011;8557;52.068;5.198;2023-02-28T11:29:12;1.80;;;1.70;;
16880;SDS011;8557;52.068;5.198;2023-02-28T11:34:33;2.58;;;1.85;;
16880;SDS011;8557;52.068;5.198;2023-02-28T11:37:03;2.97;;;1.83;;
16880;SDS011;8557;52.068;5.198;2023-02-28T11:39:31;2.15;;;1.70;;
16880;SDS011;8557;52.068;5.198;2023-02-28T11:42:22;3.50;;;1.67;;
16880;SDS011;8557;52.068;5.198;2023-02-28T11:45:15;1.95;;;1.75;;
16880;SDS011;8557;52.068;5.198;2023-02-28T11:47:51;1.80;;;1.70;;
16880;SDS011;8557;52.068;5.198;2023-02-28T11:50:35;1.73;;;1.63;;
16880;SDS011;8557;52.068;5.198;2023-02-28T11:53:16;1.88;;;1.73;;
16880;SDS011;8557;52.068;5.198;2023-02-28T11:55:50;1.92;;;1.67;;
16880;SDS011;8557;52.068;5.198;2023-02-28T11:58:24;4.95;;;1.50;;
16880;SDS011;8557;52.068;5.198;2023-02-28T12:01:01;1.90;;;1.73;;
16880;SDS011;8557;52.068;5.198;2023-02-28T12:03:38;3.72;;;1.77;;
16880;SDS011;8557;52.068;5.198;2023-02-28T12:06:14;1.88;;;1.77;;
16880;SDS011;8557;52.068;5.198;2023-02-28T12:08:51;1.70;;;1.60;;
16880;SDS011;8557;52.068;5.198;2023-02-28T12:11:30;1.65;;;1.55;;
16880;SDS011;8557;52.068;5.198;2023-02-28T12:17:09;2.53;;;1.85;;
16880;SDS011;8557;52.068;5.198;2023-02-28T12:19:49;1.77;;;1.60;;
16880;SDS011;8557;52.068;5.198;2023-02-28T12:22:24;1.63;;;1.50;;
16880;SDS011;8557;52.068;5.198;2023-02-28T12:27:50;2.22;;;1.90;;
16880;SDS011;8557;52.068;5.198;2023-02-28T12:30:19;2.88;;;1.70;;
16880;SDS011;8557;52.068;5.198;2023-02-28T12:32:51;2.78;;;1.40;;
16880;SDS011;8557;52.068;5.198;2023-02-28T12:35:22;1.65;;;1.55;;
16880;SDS011;8557;52.068;5.198;2023-02-28T12:37:53;2.28;;;1.80;;
16880;SDS011;8557;52.068;5.198;2023-02-28T12:40:25;1.73;;;1.60;;
16880;SDS011;8557;52.068;5.198;2023-02-28T12:43:06;1.75;;;1.50;;
16880;SDS011;8557;52.068;5.198;2023-02-28T12:45:39;2.80;;;1.65;;
16880;SDS011;8557;52.068;5.198;2023-02-28T12:48:10;2.92;;;1.50;;
16880;SDS011;8557;52.068;5.198;2023-02-28T12:50:40;1.50;;;1.40;;
16880;SDS011;8557;52.068;5.198;2023-02-28T12:53:08;1.60;;;1.50;;
16880;SDS011;8557;52.068;5.198;2023-02-28T12:55:46;1.73;;;1.50;;
16880;SDS011;8557;52.068;5.198;2023-02-28T12:58:18;2.00;;;1.55;;
16880;SDS011;8557;52.068;5.198;2023-02-28T13:01:01;1.98;;;1.77;;
16880;SDS011;8557;52.068;5.198;2023-02-28T13:03:45;1.77;;;1.67;;
16880;SDS011;8557;52.068;5.198;2023-02-28T13:09:11;1.95;;;1.67;;
16880;SDS011;8557;52.068;5.198;2023-02-28T13:11:43;1.83;;;1.55;;
16880;SDS011;8557;52.068;5.198;2023-02-28T13:14:22;1.92;;;1.70;;
16880;SDS011;8557;52.068;5.198;2023-02-28T13:16:59;1.70;;;1.50;;
16880;SDS011;8557;52.068;5.198;2023-02-28T13:19:30;1.90;;;1.70;;
16880;SDS011;8557;52.068;5.198;2023-02-28T13:21:58;2.65;;;1.75;;
16880;SDS011;8557;52.068;5.198;2023-02-28T13:24:37;1.98;;;1.60;;
16880;SDS011;8557;52.068;5.198;2023-02-28T13:33:21;2.55;;;1.48;;
16880;SDS011;8557;52.068;5.198;2023-02-28T13:36:09;1.73;;;1.63;;
16880;SDS011;8557;52.068;5.198;2023-02-28T13:38:51;2.20;;;1.60;;
16880;SDS011;8557;52.068;5.198;2023-02-28T13:44:14;2.20;;;2.00;;
16880;SDS011;8557;52.068;5.198;2023-02-28T13:49:47;1.95;;;1.75;;
16880;SDS011;8557;52.068;5.198;2023-02-28T13:52:17;1.30;;;1.20;;
16880;SDS011;8557;52.068;5.198;2023-02-28T13:55:10;1.88;;;1.48;;
16880;SDS011;8557;52.068;5.198;2023-02-28T13:57:54;2.90;;;2.47;;
16880;SDS011;8557;52.068;5.198;2023-02-28T14:00:42;2.35;;;1.85;;
16880;SDS011;8557;52.068;5.198;2023-02-28T14:03:26;2.03;;;1.60;;
16880;SDS011;8557;52.068;5.198;2023-02-28T14:06:08;1.80;;;1.55;;
16880;SDS011;8557;52.068;5.198;2023-02-28T14:08:45;2.13;;;1.90;;
16880;SDS011;8557;52.068;5.198;2023-02-28T14:14:00;1.52;;;1.42;;
16880;SDS011;8557;52.068;5.198;2023-02-28T14:16:35;2.28;;;1.90;;
16880;SDS011;8557;52.068;5.198;2023-02-28T14:19:09;2.30;;;1.90;;
16880;SDS011;8557;52.068;5.198;2023-02-28T14:21:38;2.20;;;2.00;;
16880;SDS011;8557;52.068;5.198;2023-02-28T14:24:24;2.53;;;1.80;;
16880;SDS011;8557;52.068;5.198;2023-02-28T14:27:06;2.28;;;1.83;;
16880;SDS011;8557;52.068;5.198;2023-02-28T14:30:09;1.75;;;1.55;;
16880;SDS011;8557;52.068;5.198;2023-02-28T14:32:59;1.75;;;1.65;;
16880;SDS011;8557;52.068;5.198;2023-02-28T14:35:48;1.70;;;1.60;;
16880;SDS011;8557;52.068;5.198;2023-02-28T14:38:24;1.60;;;1.50;;
16880;SDS011;8557;52.068;5.198;2023-02-28T14:40:56;2.40;;;1.77;;
16880;SDS011;8557;52.068;5.198;2023-02-28T14:43:27;1.98;;;1.77;;
16880;SDS011;8557;52.068;5.198;2023-02-28T14:45:55;2.35;;;1.70;;
16880;SDS011;8557;52.068;5.198;2023-02-28T14:48:25;2.33;;;1.70;;
16880;SDS011;8557;52.068;5.198;2023-02-28T14:50:54;2.53;;;1.60;;
16880;SDS011;8557;52.068;5.198;2023-02-28T14:53:23;2.05;;;1.85;;
16880;SDS011;8557;52.068;5.198;2023-02-28T14:55:53;3.20;;;1.90;;
16880;SDS011;8557;52.068;5.198;2023-02-28T14:58:21;2.33;;;2.00;;
16880;SDS011;8557;52.068;5.198;2023-02-28T15:00:50;1.85;;;1.70;;
16880;SDS011;8557;52.068;5.198;2023-02-28T15:03:20;2.55;;;2.00;;
16880;SDS011;8557;52.068;5.198;2023-02-28T15:05:53;2.22;;;2.03;;
16880;SDS011;8557;52.068;5.198;2023-02-28T15:08:22;3.35;;;2.00;;
16880;SDS011;8557;52.068;5.198;2023-02-28T15:10:50;3.05;;;1.58;;
16880;SDS011;8557;52.068;5.198;2023-02-28T15:13:20;2.00;;;1.85;;
16880;SDS011;8557;52.068;5.198;2023-02-28T15:15:48;2.17;;;1.95;;
16880;SDS011;8557;52.068;5.198;2023-02-28T15:18:22;2.17;;;1.70;;
16880;SDS011;8557;52.068;5.198;2023-02-28T15:20:55;2.28;;;2.00;;
16880;SDS011;8557;52.068;5.198;2023-02-28T15:23:23;2.10;;;1.90;;
16880;SDS011;8557;52.068;5.198;2023-02-28T15:25:50;2.78;;;2.05;;
16880;SDS011;8557;52.068;5.198;2023-02-28T15:28:19;2.35;;;1.85;;
16880;SDS011;8557;52.068;5.198;2023-02-28T15:30:52;3.10;;;2.03;;
16880;SDS011;8557;52.068;5.198;2023-02-28T15:33:22;1.88;;;1.77;;
16880;SDS011;8557;52.068;5.198;2023-02-28T15:35:50;2.45;;;2.10;;
16880;SDS011;8557;52.068;5.198;2023-02-28T15:38:21;2.20;;;2.00;;
16880;SDS011;8557;52.068;5.198;2023-02-28T15:40:50;3.13;;;2.20;;
16880;SDS011;8557;52.068;5.198;2023-02-28T15:43:25;2.60;;;1.75;;
16880;SDS011;8557;52.068;5.198;2023-02-28T15:45:55;2.15;;;1.95;;
16880;SDS011;8557;52.068;5.198;2023-02-28T15:48:24;2.50;;;2.25;;
16880;SDS011;8557;52.068;5.198;2023-02-28T15:50:54;1.83;;;1.73;;
16880;SDS011;8557;52.068;5.198;2023-02-28T15:53:25;2.20;;;2.00;;
16880;SDS011;8557;52.068;5.198;2023-02-28T15:55:55;3.15;;;2.15;;
16880;SDS011;8557;52.068;5.198;2023-02-28T15:58:25;3.03;;;2.15;;
16880;SDS011;8557;52.068;5.198;2023-02-28T16:01:04;4.25;;;2.30;;
16880;SDS011;8557;52.068;5.198;2023-02-28T16:03:37;3.25;;;2.20;;
16880;SDS011;8557;52.068;5.198;2023-02-28T16:09:08;2.30;;;2.10;;